Time;durP1;ratioP1;P1;durP2;ratioP2;P2;SDS_P1;SDS_P2;PMS_P1;PMS_P2;Temp;Humidity;BMP_temperature;BMP_pressure;BME280_temperature;BME280_humidity;BME280_pressure;Samples;Min_cycle;Max_cycle;Signal;HPM_P1;HPM_P2
2022/04/12 00:00:38;;;;;;;13.45;7.32;;;;;;;16.57;51.64;99402.59;5033652;28;20095;-83
2022/04/12 00:03:04;;;;;;;14.63;9.27;;;;;;;16.60;51.37;99402.22;5033696;28;20059;-83
2022/04/12 00:05:29;;;;;;;15.13;7.82;;;;;;;16.56;51.31;99392.97;5034115;28;20034;-84
2022/04/12 00:07:55;;;;;;;10.65;7.25;;;;;;;16.56;51.53;99394.78;5034220;28;20033;-84
2022/04/12 00:10:20;;;;;;;14.48;7.32;;;;;;;16.67;51.67;99386.50;5033755;28;20033;-84
2022/04/12 00:12:46;;;;;;;12.23;7.47;;;;;;;16.67;51.72;99378.56;5033664;28;20036;-84
2022/04/12 00:15:12;;;;;;;11.88;6.85;;;;;;;16.64;51.72;99376.22;5033772;28;20100;-84
2022/04/12 00:20:26;;;;;;;9.15;6.13;;;;;;;16.64;52.21;99384.19;5033657;28;20037;-84
2022/04/12 00:22:54;;;;;;;7.85;5.93;;;;;;;16.60;51.97;99378.38;5033265;28;20025;-84
2022/04/12 00:25:22;;;;;;;7.43;5.43;;;;;;;16.60;52.30;99377.56;5033195;28;20026;-84
2022/04/12 00:27:49;;;;;;;11.75;5.50;;;;;;;16.55;52.63;99371.97;5032969;28;20037;-84
2022/04/12 00:30:14;;;;;;;15.70;7.18;;;;;;;16.41;52.71;99368.13;5032833;28;20090;-84
2022/04/12 00:32:40;;;;;;;10.00;6.45;;;;;;;16.30;52.36;99356.06;5033295;28;20018;-84
2022/04/12 00:35:06;;;;;;;11.02;7.82;;;;;;;16.20;52.40;99366.84;5033323;28;20383;-85
2022/04/12 00:37:32;;;;;;;12.45;7.25;;;;;;;15.98;52.92;99354.28;5033152;28;20029;-86
2022/04/12 00:39:57;;;;;;;10.95;7.50;;;;;;;15.98;52.70;99351.63;5033009;28;20035;-84
2022/04/12 00:42:23;;;;;;;8.93;6.63;;;;;;;15.89;52.81;99339.38;5033004;28;20396;-84
2022/04/12 00:44:48;;;;;;;11.80;6.90;;;;;;;15.82;52.93;99341.84;5032949;28;20022;-84
2022/04/12 00:47:14;;;;;;;11.48;6.93;;;;;;;15.73;53.04;99335.72;5032723;28;20026;-84
2022/04/12 00:49:40;;;;;;;15.98;7.88;;;;;;;15.59;53.30;99345.06;5032836;28;20076;-84
2022/04/12 00:52:06;;;;;;;13.55;7.60;;;;;;;15.54;53.91;99343.91;5032825;28;20029;-83
2022/04/12 00:54:37;;;;;;;13.50;7.90;;;;;;;15.34;54.21;99341.53;5032951;28;20044;-84
2022/04/12 00:57:04;;;;;;;11.40;8.20;;;;;;;15.34;54.07;99336.25;5032174;28;20026;-84
2022/04/12 00:59:32;;;;;;;10.07;7.13;;;;;;;15.34;53.85;99325.66;5031243;28;20021;-83
2022/04/12 01:01:58;;;;;;;17.02;8.05;;;;;;;15.13;54.38;99331.41;5032771;28;20017;-84
2022/04/12 01:04:24;;;;;;;12.45;8.70;;;;;;;15.19;54.64;99332.59;5032685;28;20494;-85
2022/04/12 01:06:50;;;;;;;12.52;7.75;;;;;;;15.15;54.57;99336.53;5032680;28;20105;-83
2022/04/12 01:09:16;;;;;;;14.05;7.68;;;;;;;15.15;54.74;99340.00;5032714;28;20048;-84
2022/04/12 01:11:47;;;;;;;10.82;6.75;;;;;;;15.16;54.61;99338.19;5032523;28;20033;-83
2022/04/12 01:14:13;;;;;;;10.98;7.03;;;;;;;15.11;54.53;99337.84;5032447;28;20479;-84
2022/04/12 01:16:39;;;;;;;10.23;7.40;;;;;;;15.11;54.79;99346.59;5032739;28;20105;-84
2022/04/12 01:19:04;;;;;;;15.75;8.40;;;;;;;15.07;54.91;99348.75;5032616;28;20587;-84
2022/04/12 01:21:41;;;;;;;11.70;7.28;;;;;;;15.12;55.07;99345.59;5031081;28;20499;-84
2022/04/12 01:24:07;;;;;;;10.98;7.05;;;;;;;14.97;55.69;99340.09;5032489;28;20152;-83
2022/04/12 01:26:32;;;;;;;12.25;7.32;;;;;;;14.88;55.83;99351.63;5033052;28;20100;-84
2022/04/12 01:28:58;;;;;;;11.48;7.38;;;;;;;15.03;55.44;99338.66;5032112;28;20076;-84
2022/04/12 01:31:25;;;;;;;14.15;7.25;;;;;;;15.05;55.51;99334.84;5032368;28;20036;-84
2022/04/12 01:33:51;;;;;;;12.90;6.90;;;;;;;15.03;55.44;99333.34;5032340;28;20026;-84
2022/04/12 01:36:16;;;;;;;10.38;7.47;;;;;;;14.97;55.31;99308.38;5032193;28;20056;-84
2022/04/12 01:38:41;;;;;;;12.52;8.15;;;;;;;14.94;55.42;99313.97;5032247;28;20021;-84
2022/04/12 01:41:07;;;;;;;14.82;7.75;;;;;;;14.91;55.76;99305.53;5032135;28;20029;-84
2022/04/12 01:43:32;;;;;;;9.02;6.55;;;;;;;14.92;55.36;99301.91;5032167;28;20434;-84
2022/04/12 01:45:57;;;;;;;12.88;8.10;;;;;;;14.87;55.46;99297.94;5032193;28;20053;-83
2022/04/12 01:48:25;;;;;;;13.88;8.52;;;;;;;14.82;56.49;99302.03;5032007;28;20025;-84
2022/04/12 01:50:50;;;;;;;15.95;8.05;;;;;;;14.82;56.29;99296.75;5032037;28;20068;-84
2022/04/12 01:53:15;;;;;;;11.63;7.90;;;;;;;14.83;56.33;99301.03;5031907;28;20060;-84
2022/04/12 01:55:41;;;;;;;13.95;7.88;;;;;;;14.89;56.67;99297.78;5032013;28;20087;-84
2022/04/12 01:58:06;;;;;;;12.93;7.28;;;;;;;14.91;56.65;99294.97;5032076;28;20037;-84
2022/04/12 02:00:32;;;;;;;12.85;7.45;;;;;;;14.96;56.71;99288.22;5031808;28;20025;-84
2022/04/12 02:02:58;;;;;;;13.02;7.35;;;;;;;15.03;56.69;99294.53;5031877;28;20488;-84
2022/04/12 02:05:23;;;;;;;16.08;6.97;;;;;;;15.14;56.72;99289.94;5030668;28;20030;-84
2022/04/12 02:07:48;;;;;;;9.50;6.70;;;;;;;15.17;56.84;99289.63;5034372;28;20033;-84
2022/04/12 02:10:14;;;;;;;12.27;7.05;;;;;;;15.20;56.83;99284.00;5035680;28;20026;-84
2022/04/12 02:12:39;;;;;;;11.93;7.28;;;;;;;15.22;56.69;99280.19;5035611;28;20412;-84
2022/04/12 02:15:05;;;;;;;10.68;6.32;;;;;;;15.26;57.00;99283.34;5035883;28;20563;-84
2022/04/12 02:17:31;;;;;;;14.57;8.13;;;;;;;15.23;57.16;99281.03;5035580;28;20029;-83
2022/04/12 02:19:56;;;;;;;14.98;7.03;;;;;;;15.26;56.93;99273.63;5035685;28;20033;-84
2022/04/12 02:22:22;;;;;;;11.27;6.85;;;;;;;15.25;57.36;99260.56;5035505;28;20026;-83
2022/04/12 02:24:48;;;;;;;13.05;7.90;;;;;;;15.22;57.32;99261.69;5035427;28;20026;-84
2022/04/12 02:27:13;;;;;;;11.85;7.60;;;;;;;15.29;57.17;99251.28;5034183;28;20557;-84
2022/04/12 02:29:39;;;;;;;11.00;6.82;;;;;;;15.36;57.05;99257.56;5033925;28;20045;-84
2022/04/12 02:32:05;;;;;;;11.82;5.93;;;;;;;15.39;57.17;99256.44;5035354;28;20104;-84
2022/04/12 02:34:32;;;;;;;13.82;6.47;;;;;;;15.40;57.40;99264.22;5035331;28;20299;-83
2022/04/12 02:36:57;;;;;;;11.05;6.55;;;;;;;15.46;57.11;99262.72;5033921;28;20571;-84
2022/04/12 02:39:23;;;;;;;13.55;7.22;;;;;;;15.54;57.03;99264.53;5035306;28;20030;-84
2022/04/12 02:41:48;;;;;;;10.65;6.40;;;;;;;15.54;56.84;99265.38;5035041;28;20039;-84
2022/04/12 02:44:14;;;;;;;9.73;6.22;;;;;;;15.58;56.95;99265.88;5033757;28;20155;-84
2022/04/12 02:46:39;;;;;;;8.60;6.15;;;;;;;15.59;57.23;99262.25;5035184;28;20025;-84
2022/04/12 02:49:05;;;;;;;10.48;5.53;;;;;;;15.65;56.56;99264.22;5034902;28;20017;-84
2022/04/12 02:51:30;;;;;;;8.63;5.63;;;;;;;15.63;56.92;99253.78;5034759;28;20021;-84
2022/04/12 02:53:55;;;;;;;8.60;5.90;;;;;;;15.63;56.79;99247.69;5034939;28;20060;-84
2022/04/12 02:56:21;;;;;;;11.73;6.38;;;;;;;15.65;56.92;99256.28;5034897;28;20053;-84
2022/04/12 02:58:46;;;;;;;12.98;5.78;;;;;;;15.65;56.83;99248.34;5034843;28;20057;-85
2022/04/12 03:01:11;;;;;;;13.88;6.57;;;;;;;15.64;56.85;99241.41;5034886;28;20041;-84
2022/04/12 03:03:37;;;;;;;14.27;7.13;;;;;;;15.66;56.95;99237.59;5034769;28;20041;-84
2022/04/12 03:06:02;;;;;;;10.73;6.80;;;;;;;15.62;57.02;99216.91;5034741;28;20519;-85
2022/04/12 03:08:27;;;;;;;12.88;6.50;;;;;;;15.70;56.95;99219.59;5034730;28;20091;-85
2022/04/12 03:10:53;;;;;;;12.20;6.95;;;;;;;15.61;57.30;99220.56;5034346;28;20104;-85
2022/04/12 03:13:18;;;;;;;14.82;7.03;;;;;;;15.67;56.95;99219.91;5033278;28;20468;-85
2022/04/12 03:15:43;;;;;;;10.20;5.82;;;;;;;15.79;56.80;99215.13;5034905;28;20101;-85
2022/04/12 03:18:10;;;;;;;7.57;5.38;;;;;;;15.86;56.41;99198.41;5034389;28;20398;-85
2022/04/12 03:20:35;;;;;;;8.85;5.90;;;;;;;15.85;56.58;99196.75;5034409;28;20195;-85
2022/04/12 03:23:01;;;;;;;14.20;7.18;;;;;;;15.83;56.15;99187.34;5034620;28;20230;-85
2022/04/12 03:25:26;;;;;;;10.52;6.75;;;;;;;15.85;56.39;99178.22;5034512;28;20025;-85
2022/04/12 03:27:51;;;;;;;12.63;8.20;;;;;;;15.80;56.25;99174.44;5033000;28;20041;-85
2022/04/12 03:30:17;;;;;;;10.07;6.78;;;;;;;15.83;56.03;99185.50;5034238;28;20041;-85
2022/04/12 03:32:43;;;;;;;12.32;7.50;;;;;;;15.79;56.35;99205.38;5034544;28;20468;-85
2022/04/12 03:35:08;;;;;;;11.50;6.78;;;;;;;15.82;56.15;99215.63;5034350;28;20091;-84
2022/04/12 03:37:34;;;;;;;8.90;6.47;;;;;;;15.76;56.03;99205.72;5034249;28;20025;-85
2022/04/12 03:39:59;;;;;;;11.13;6.60;;;;;;;15.75;56.57;99198.75;5033895;28;20438;-84
2022/04/12 03:42:25;;;;;;;8.40;6.07;;;;;;;15.69;57.04;99195.94;5034005;28;20026;-85
2022/04/12 03:44:51;;;;;;;10.32;6.72;;;;;;;15.67;56.91;99198.72;5034064;28;20495;-85
2022/04/12 03:47:16;;;;;;;10.13;7.40;;;;;;;15.71;56.83;99202.69;5034260;28;20068;-85
2022/04/12 03:49:42;;;;;;;11.40;6.13;;;;;;;15.70;57.07;99202.84;5033967;28;20030;-85
2022/04/12 03:52:09;;;;;;;9.40;6.30;;;;;;;15.71;57.56;99194.75;5033691;28;20491;-85
2022/04/12 03:54:35;;;;;;;9.13;6.10;;;;;;;15.73;57.41;99190.16;5033775;28;20068;-85
2022/04/12 03:57:00;;;;;;;10.35;6.18;;;;;;;15.74;57.55;99177.75;5033733;28;20057;-85
2022/04/12 03:59:26;;;;;;;10.82;6.55;;;;;;;15.72;57.92;99169.13;5033666;28;20025;-85
2022/04/12 04:01:51;;;;;;;13.10;7.03;;;;;;;15.78;57.49;99171.97;5033517;28;20067;-84
2022/04/12 04:04:17;;;;;;;14.30;8.10;;;;;;;15.84;57.39;99183.72;5033445;28;20018;-84
2022/04/12 04:06:42;;;;;;;10.68;7.07;;;;;;;15.88;57.62;99195.59;5043221;28;20037;-85
2022/04/12 04:09:08;;;;;;;18.17;8.27;;;;;;;15.86;58.83;99216.94;5053053;28;20025;-84
2022/04/12 04:11:33;;;;;;;11.52;6.75;;;;;;;15.87;58.70;99217.75;5053152;28;20029;-85
2022/04/12 04:14:03;;;;;;;11.93;7.75;;;;;;;15.86;59.56;99214.28;5052137;28;20056;-84
2022/04/12 04:16:29;;;;;;;11.45;7.03;;;;;;;15.81;60.17;99208.66;5053927;28;20024;-85
2022/04/12 04:18:54;;;;;;;12.52;8.13;;;;;;;15.72;61.55;99183.19;5066866;28;20043;-85
2022/04/12 04:21:19;;;;;;;10.48;6.70;;;;;;;15.68;61.79;99192.47;5066669;28;20047;-85
2022/04/12 04:23:45;;;;;;;10.93;7.85;;;;;;;15.67;62.57;99201.38;5057598;28;20476;-85
2022/04/12 04:26:10;;;;;;;11.45;7.97;;;;;;;15.60;62.14;99206.53;5053269;28;20356;-85
2022/04/12 04:28:36;;;;;;;10.77;7.53;;;;;;;15.57;62.99;99200.72;5052724;28;20103;-85
2022/04/12 04:31:01;;;;;;;11.57;7.65;;;;;;;15.52;63.06;99208.31;5052236;28;20036;-85
2022/04/12 04:33:27;;;;;;;10.68;7.80;;;;;;;15.51;63.22;99209.34;5053319;28;20123;-85
2022/04/12 04:35:53;;;;;;;13.90;8.68;;;;;;;15.51;63.52;99211.97;5052907;28;20029;-85
2022/04/12 04:38:18;;;;;;;11.35;8.48;;;;;;;15.49;63.49;99198.09;5052897;28;20429;-84
2022/04/12 04:40:44;;;;;;;11.82;8.60;;;;;;;15.47;63.96;99200.91;5052642;28;20116;-85
2022/04/12 04:43:09;;;;;;;10.50;8.80;;;;;;;15.45;63.94;99190.47;5052695;28;20397;-85
2022/04/12 04:45:35;;;;;;;16.77;9.48;;;;;;;15.44;64.87;99175.59;5052696;28;20379;-85
2022/04/12 04:48:03;;;;;;;15.98;11.02;;;;;;;15.27;65.51;99147.50;5051358;28;20025;-85
2022/04/12 04:50:31;;;;;;;12.73;9.40;;;;;;;15.19;65.57;99158.09;5052444;28;20075;-85
2022/04/12 04:52:58;;;;;;;14.75;9.70;;;;;;;15.33;65.05;99140.72;5052478;28;20483;-85
2022/04/12 04:55:24;;;;;;;16.83;10.00;;;;;;;15.30;65.00;99141.88;5052423;28;20541;-85
2022/04/12 04:57:53;;;;;;;14.80;9.68;;;;;;;15.31;65.14;99156.75;5052532;28;20021;-85
2022/04/12 05:00:19;;;;;;;13.00;10.18;;;;;;;15.27;65.28;99176.59;5052368;28;20203;-85
2022/04/12 05:02:46;;;;;;;13.75;9.90;;;;;;;15.21;66.15;99172.78;5052119;28;20104;-85
2022/04/12 05:05:13;;;;;;;12.35;9.45;;;;;;;15.23;65.41;99180.56;5051103;28;20033;-85
2022/04/12 05:07:39;;;;;;;11.85;9.02;;;;;;;15.28;65.46;99186.16;5050966;28;20391;-86
2022/04/12 05:10:05;;;;;;;10.57;9.20;;;;;;;15.13;65.30;99185.19;5050803;28;20391;-85
2022/04/12 05:12:30;;;;;;;17.42;9.27;;;;;;;15.16;65.09;99182.19;5052130;28;20020;-85
2022/04/12 05:14:56;;;;;;;18.92;8.77;;;;;;;15.07;64.97;99186.66;5051947;28;20028;-86
2022/04/12 05:17:28;;;;;;;17.30;9.05;;;;;;;15.06;64.82;99184.97;5052233;28;20079;-86
2022/04/12 05:19:56;;;;;;;13.07;8.40;;;;;;;15.03;65.01;99178.22;5052221;28;20678;-85
2022/04/12 05:22:22;;;;;;;15.30;8.20;;;;;;;15.13;64.63;99186.00;5052220;28;20416;-85
2022/04/12 05:24:48;;;;;;;13.75;8.95;;;;;;;15.20;64.17;99183.50;5051066;28;20044;-85
2022/04/12 05:27:14;;;;;;;15.23;9.00;;;;;;;15.12;64.09;99181.69;5050822;28;20475;-86
2022/04/12 05:29:39;;;;;;;13.10;9.05;;;;;;;15.01;64.37;99184.66;5051643;28;20094;-85
2022/04/12 05:32:05;;;;;;;13.15;8.70;;;;;;;15.17;64.00;99183.88;5052115;28;20132;-85
2022/04/12 05:34:31;;;;;;;11.30;8.60;;;;;;;14.96;64.25;99187.78;5050523;28;20056;-86
2022/04/12 05:36:56;;;;;;;14.73;8.23;;;;;;;14.96;64.64;99190.41;5051849;28;20021;-85
2022/04/12 05:39:22;;;;;;;11.43;8.13;;;;;;;15.10;64.05;99172.28;5050486;28;20086;-85
2022/04/12 05:41:48;;;;;;;12.98;7.50;;;;;;;15.19;63.57;99179.22;5051510;28;20091;-85
2022/04/12 05:44:13;;;;;;;12.70;7.68;;;;;;;15.11;64.51;99182.69;5052061;28;20043;-86
2022/04/12 05:46:38;;;;;;;14.20;9.05;;;;;;;15.16;64.52;99177.72;5051897;28;20053;-86
2022/04/12 05:49:04;;;;;;;10.63;7.63;;;;;;;15.14;64.25;99186.81;5050407;28;20108;-85
2022/04/12 05:51:29;;;;;;;13.82;9.05;;;;;;;15.10;64.68;99178.38;5050394;28;20040;-85
2022/04/12 05:53:54;;;;;;;14.40;7.47;;;;;;;14.93;64.75;99177.53;5051927;28;20024;-84
2022/04/12 05:56:20;;;;;;;13.23;7.75;;;;;;;15.02;64.43;99175.72;5051808;28;20029;-85
2022/04/12 05:58:45;;;;;;;9.68;6.90;;;;;;;15.10;63.97;99164.34;5051685;28;20032;-84
2022/04/12 06:01:10;;;;;;;11.68;7.50;;;;;;;15.07;64.42;99163.69;5051836;28;20028;-84
2022/04/12 06:03:36;;;;;;;12.15;7.75;;;;;;;14.85;65.11;99180.19;5051717;28;20049;-85
2022/04/12 06:06:01;;;;;;;12.30;7.03;;;;;;;15.08;64.25;99154.75;5051700;28;20116;-84
2022/04/12 06:08:26;;;;;;;10.88;7.53;;;;;;;15.13;64.37;99171.97;5051768;28;20029;-84
2022/04/12 06:10:52;;;;;;;9.82;7.03;;;;;;;15.14;64.58;99194.75;5051755;28;20036;-85
2022/04/12 06:13:18;;;;;;;14.60;6.50;;;;;;;15.03;64.63;99193.25;5051632;28;20379;-85
2022/04/12 06:15:43;;;;;;;15.02;7.00;;;;;;;14.99;65.26;99184.00;5051559;28;20534;-85
2022/04/12 06:18:10;;;;;;;10.90;7.38;;;;;;;15.15;65.00;99193.78;5050309;28;20071;-85
2022/04/12 06:20:36;;;;;;;9.60;7.13;;;;;;;15.20;64.82;99204.66;5051266;28;20025;-84
2022/04/12 06:23:01;;;;;;;10.90;7.97;;;;;;;15.18;65.59;99206.66;5051480;28;20029;-84
2022/04/12 06:25:26;;;;;;;11.57;7.47;;;;;;;15.21;65.00;99199.22;5051390;28;20052;-84
2022/04/12 06:27:52;;;;;;;12.27;7.80;;;;;;;15.05;65.57;99194.75;5051482;28;20056;-84
2022/04/12 06:30:20;;;;;;;10.07;7.35;;;;;;;15.16;65.35;99203.34;5051149;28;20033;-84
2022/04/12 06:32:46;;;;;;;10.68;7.05;;;;;;;15.19;65.60;99205.69;5051412;28;20491;-84
2022/04/12 06:35:12;;;;;;;8.82;7.18;;;;;;;15.23;65.28;99212.28;5051124;28;20051;-84
2022/04/12 06:37:40;;;;;;;14.35;8.25;;;;;;;15.24;65.54;99195.41;5051279;28;20052;-85
2022/04/12 06:40:06;;;;;;;12.85;8.43;;;;;;;15.18;66.15;99209.28;5051316;28;20025;-85
2022/04/12 06:42:32;;;;;;;12.10;7.43;;;;;;;15.18;66.45;99207.47;5051184;28;20526;-85
2022/04/12 06:44:57;;;;;;;12.68;7.22;;;;;;;15.18;67.06;99211.94;5051070;28;20108;-85
2022/04/12 06:47:23;;;;;;;15.98;7.47;;;;;;;15.23;67.11;99226.31;5051061;28;20115;-85
2022/04/12 06:49:50;;;;;;;12.30;7.05;;;;;;;15.09;67.70;99232.25;5050950;28;20071;-85
2022/04/12 06:52:17;;;;;;;14.43;7.97;;;;;;;14.99;68.02;99242.97;5051139;28;20025;-85
2022/04/12 06:54:43;;;;;;;12.20;7.38;;;;;;;15.02;68.62;99255.03;5053098;28;20074;-85
2022/04/12 06:57:09;;;;;;;13.30;8.05;;;;;;;14.96;68.80;99258.31;5054738;28;20386;-85
2022/04/12 06:59:35;;;;;;;12.95;8.45;;;;;;;14.97;68.46;99257.31;5054398;28;20029;-85
2022/04/12 07:02:01;;;;;;;22.65;9.50;;;;;;;14.59;69.29;99262.97;5054351;28;20036;-85
2022/04/12 07:04:29;;;;;;;11.43;7.97;;;;;;;14.88;68.77;99248.53;5054803;28;20379;-85
2022/04/12 07:06:56;;;;;;;14.48;8.07;;;;;;;14.84;69.03;99247.22;5054587;28;20021;-85
2022/04/12 07:09:23;;;;;;;16.25;7.75;;;;;;;14.65;69.46;99249.13;5054434;28;20036;-85
2022/04/12 07:11:49;;;;;;;15.35;7.82;;;;;;;14.68;70.04;99245.34;5054370;28;20037;-85
2022/04/12 07:14:15;;;;;;;15.40;8.50;;;;;;;14.81;69.56;99251.00;5054497;28;20537;-86
2022/04/12 07:16:40;;;;;;;20.60;9.20;;;;;;;14.89;69.77;99250.22;5052978;28;20037;-85
2022/04/12 07:19:06;;;;;;;14.70;8.75;;;;;;;15.02;69.75;99250.56;5054271;28;20021;-85
2022/04/12 07:21:31;;;;;;;13.25;8.30;;;;;;;15.01;69.91;99250.75;5054110;28;20021;-85
2022/04/12 07:23:59;;;;;;;12.63;8.07;;;;;;;15.08;69.60;99254.38;5055921;28;20522;-85
2022/04/12 07:26:25;;;;;;;15.65;8.77;;;;;;;15.15;70.00;99260.69;5054933;28;20048;-85
2022/04/12 07:28:50;;;;;;;9.90;7.03;;;;;;;15.24;69.33;99254.44;5054352;28;20033;-85
2022/04/12 07:31:16;;;;;;;14.60;8.23;;;;;;;15.17;69.24;99252.59;5053821;28;20075;-85
2022/04/12 07:33:41;;;;;;;16.40;8.50;;;;;;;15.22;69.67;99255.56;5053799;28;20029;-85
2022/04/12 07:36:06;;;;;;;13.00;7.75;;;;;;;15.35;69.25;99261.22;5053785;28;20392;-85
2022/04/12 07:38:32;;;;;;;14.60;7.20;;;;;;;15.27;70.01;99251.44;5053903;28;20119;-86
2022/04/12 07:40:57;;;;;;;14.85;7.07;;;;;;;15.38;69.95;99247.69;5053790;28;20068;-85
2022/04/12 07:43:23;;;;;;;12.13;6.75;;;;;;;15.40;70.03;99248.34;5053658;28;20021;-85
2022/04/12 07:45:48;;;;;;;16.10;7.85;;;;;;;15.53;69.99;99239.09;5053658;28;20025;-85
2022/04/12 07:48:13;;;;;;;11.77;6.75;;;;;;;15.59;69.82;99247.19;5053612;28;20025;-85
2022/04/12 07:50:39;;;;;;;16.10;7.35;;;;;;;15.62;69.82;99241.56;5053521;28;20021;-84
2022/04/12 07:53:05;;;;;;;11.60;6.40;;;;;;;15.65;70.07;99235.13;5053517;28;20111;-84
2022/04/12 07:55:30;;;;;;;11.30;6.53;;;;;;;15.62;70.46;99228.34;5053766;28;20025;-83
2022/04/12 07:57:56;;;;;;;13.15;6.82;;;;;;;15.72;69.95;99222.88;5053597;28;20029;-84
2022/04/12 08:00:22;;;;;;;13.90;7.07;;;;;;;15.64;70.41;99223.72;5053343;28;20021;-84
2022/04/12 08:02:47;;;;;;;13.80;7.45;;;;;;;15.64;70.40;99213.13;5053457;28;20025;-84
2022/04/12 08:05:12;;;;;;;12.88;7.65;;;;;;;15.54;70.75;99222.22;5053163;28;20067;-83
2022/04/12 08:07:39;;;;;;;9.45;6.75;;;;;;;15.62;70.37;99211.63;5053279;28;20029;-84
2022/04/12 08:10:06;;;;;;;14.43;7.57;;;;;;;15.78;70.31;99211.66;5053035;28;20023;-84
2022/04/12 08:12:31;;;;;;;12.77;7.00;;;;;;;15.83;70.42;99211.97;5052000;28;20086;-83
2022/04/12 08:14:56;;;;;;;10.50;7.35;;;;;;;15.88;70.10;99227.38;5053318;28;20029;-83
2022/04/12 08:17:22;;;;;;;8.93;7.13;;;;;;;15.96;69.82;99229.19;5051864;28;20475;-83
2022/04/12 08:19:47;;;;;;;11.70;6.75;;;;;;;15.95;70.09;99240.75;5053143;28;20033;-83
2022/04/12 08:22:12;;;;;;;8.63;6.57;;;;;;;15.74;70.57;99228.88;5052924;28;20025;-84
2022/04/12 08:24:38;;;;;;;10.40;6.80;;;;;;;15.91;70.27;99221.72;5052871;28;20027;-84
2022/04/12 08:27:04;;;;;;;11.23;7.00;;;;;;;15.94;70.74;99212.66;5051677;28;20098;-83
2022/04/12 08:29:29;;;;;;;12.23;8.10;;;;;;;15.89;71.09;99204.38;5052725;28;20032;-83
2022/04/12 08:31:55;;;;;;;7.55;6.25;;;;;;;16.18;70.32;99225.81;5052690;28;20029;-83
2022/04/12 08:34:20;;;;;;;8.32;6.50;;;;;;;16.21;70.53;99236.09;5051554;28;20123;-83
2022/04/12 08:36:46;;;;;;;9.82;6.60;;;;;;;16.29;70.04;99242.34;5052641;28;20044;-84
2022/04/12 08:39:13;;;;;;;10.85;6.07;;;;;;;16.24;69.80;99251.63;5052515;28;20392;-84
2022/04/12 08:41:40;;;;;;;10.93;7.03;;;;;;;16.30;69.70;99259.91;5052512;28;20146;-83
2022/04/12 08:44:07;;;;;;;7.20;5.65;;;;;;;16.29;69.82;99252.94;5052644;28;20028;-83
2022/04/12 08:46:33;;;;;;;10.75;5.60;;;;;;;16.37;69.64;99263.50;5052545;28;20104;-84
2022/04/12 08:48:58;;;;;;;9.52;6.82;;;;;;;16.38;70.27;99275.78;5052469;28;20029;-83
2022/04/12 08:51:27;;;;;;;8.63;5.45;;;;;;;16.48;70.13;99268.44;5052257;28;20036;-84
2022/04/12 08:53:57;;;;;;;8.82;6.32;;;;;;;16.64;70.05;99280.81;5052438;28;20028;-84
2022/04/12 08:56:23;;;;;;;12.02;6.57;;;;;;;16.68;70.16;99281.31;5052376;28;20100;-84
2022/04/12 08:58:48;;;;;;;9.30;5.72;;;;;;;16.54;70.03;99277.53;5052210;28;20037;-84
2022/04/12 09:01:15;;;;;;;9.70;5.70;;;;;;;16.63;69.98;99272.06;5052231;28;20494;-83
2022/04/12 09:03:40;;;;;;;10.52;6.07;;;;;;;16.66;70.17;99271.69;5052344;28;20032;-83
2022/04/12 09:06:06;;;;;;;12.55;6.68;;;;;;;16.65;70.27;99270.06;5052270;28;20024;-84
2022/04/12 09:08:32;;;;;;;8.55;5.72;;;;;;;16.77;70.32;99278.47;5052426;28;20029;-84
2022/04/12 09:11:06;;;;;;;8.02;5.72;;;;;;;16.79;70.22;99273.81;5051983;28;20036;-84
2022/04/12 09:13:32;;;;;;;8.90;6.13;;;;;;;16.81;70.33;99266.53;5050931;28;20029;-84
2022/04/12 09:15:58;;;;;;;10.15;5.53;;;;;;;16.99;70.21;99266.28;5051872;28;20023;-84
2022/04/12 09:18:50;;;;;;;8.85;6.05;;;;;;;17.04;70.04;99274.56;5051619;28;20029;-84
2022/04/12 09:21:18;;;;;;;11.55;6.10;;;;;;;17.02;69.98;99259.81;5051564;28;20033;-83
2022/04/12 09:23:51;;;;;;;9.38;5.90;;;;;;;17.01;70.28;99271.44;5052010;28;20091;-84
2022/04/12 09:26:27;;;;;;;11.77;6.28;;;;;;;17.01;70.58;99269.59;5051969;28;20025;-84
2022/04/12 09:28:55;;;;;;;13.82;5.68;;;;;;;17.15;70.38;99267.22;5051890;28;20021;-84
2022/04/12 09:31:22;;;;;;;11.30;5.88;;;;;;;17.01;70.90;99268.78;5051838;28;20111;-83
2022/04/12 09:33:49;;;;;;;8.10;6.47;;;;;;;17.16;70.74;99276.81;5051990;28;20021;-84
2022/04/12 09:36:15;;;;;;;9.20;6.03;;;;;;;17.20;70.63;99278.09;5050222;28;20017;-84
2022/04/12 09:38:42;;;;;;;7.32;5.15;;;;;;;17.03;70.53;99278.19;5051902;28;20021;-83
2022/04/12 09:41:17;;;;;;;9.95;5.13;;;;;;;17.07;70.63;99288.47;5050510;28;20547;-83
2022/04/12 09:44:08;;;;;;;5.90;5.10;;;;;;;17.18;70.46;99290.72;5051755;28;20467;-84
2022/04/12 09:46:38;;;;;;;12.98;5.88;;;;;;;17.03;70.99;99293.28;5051868;28;20029;-84
2022/04/12 09:49:05;;;;;;;8.32;5.00;;;;;;;17.09;70.75;99289.13;5051798;28;20033;-84
2022/04/12 09:51:32;;;;;;;11.52;5.25;;;;;;;17.06;70.92;99284.97;5051951;28;20433;-84
2022/04/12 09:53:57;;;;;;;13.65;6.13;;;;;;;17.11;71.03;99289.78;5051612;28;20057;-84
2022/04/12 09:56:25;;;;;;;10.07;5.20;;;;;;;17.07;71.21;99288.47;5052184;28;20381;-83
2022/04/12 09:58:52;;;;;;;11.93;5.72;;;;;;;17.05;71.21;99296.59;5057259;28;20025;-83
2022/04/12 10:01:19;;;;;;;26.85;5.88;;;;;;;16.96;71.96;99285.22;5052917;28;20035;-84
2022/04/12 10:03:53;;;;;;;11.02;4.57;;;;;;;16.81;72.48;99278.94;5054320;28;20028;-83
2022/04/12 10:06:21;;;;;;;13.60;5.22;;;;;;;16.92;72.36;99283.88;5051333;28;20467;-84
2022/04/12 10:08:51;;;;;;;11.68;4.90;;;;;;;16.90;72.16;99280.56;5051214;28;20467;-84
2022/04/12 10:11:17;;;;;;;13.68;3.88;;;;;;;16.96;72.15;99293.16;5051183;28;20107;-83
2022/04/12 10:13:44;;;;;;;15.55;4.88;;;;;;;16.93;72.24;99288.19;5051212;28;20496;-84
2022/04/12 10:16:13;;;;;;;16.13;5.80;;;;;;;16.87;72.66;99301.31;5050971;28;20074;-83
2022/04/12 10:18:39;;;;;;;17.50;5.25;;;;;;;16.79;73.20;99308.28;5051084;28;20025;-83
2022/04/12 10:21:06;;;;;;;19.58;5.03;;;;;;;16.63;73.91;99305.69;5051088;28;20030;-83
2022/04/12 10:23:33;;;;;;;18.58;4.90;;;;;;;16.76;73.10;99310.44;5050956;28;20024;-83
2022/04/12 10:25:59;;;;;;;18.27;6.47;;;;;;;16.64;73.68;99309.97;5050914;28;20031;-84
2022/04/12 10:28:26;;;;;;;18.88;6.57;;;;;;;16.69;73.36;99309.47;5050798;28;20473;-84
2022/04/12 10:31:01;;;;;;;23.35;6.15;;;;;;;16.91;72.80;99299.97;5054635;28;20419;-83
2022/04/12 10:33:28;;;;;;;19.98;5.85;;;;;;;17.13;72.07;99301.03;5054931;28;20025;-82
2022/04/12 10:35:55;;;;;;;17.25;5.72;;;;;;;17.14;71.93;99306.19;5053754;28;20433;-83
2022/04/12 10:38:23;;;;;;;17.10;5.63;;;;;;;16.91;72.59;99298.16;5054895;28;20078;-83
2022/04/12 10:40:51;;;;;;;18.73;5.20;;;;;;;16.91;72.55;99306.09;5054559;28;20025;-83
2022/04/12 10:43:30;;;;;;;20.02;5.95;;;;;;;16.91;73.07;99295.50;5054708;28;20387;-83
2022/04/12 10:45:57;;;;;;;18.08;6.25;;;;;;;16.84;73.38;99294.53;5054823;28;20061;-83
2022/04/12 10:48:24;;;;;;;25.75;6.30;;;;;;;16.74;73.58;99293.88;5054610;28;20078;-83
2022/04/12 10:50:52;;;;;;;21.85;7.35;;;;;;;16.62;74.59;99290.75;5054414;28;20113;-83
2022/04/12 10:53:36;;;;;;;23.85;6.20;;;;;;;16.87;73.71;99286.25;5054654;28;20475;-83
2022/04/12 10:56:04;;;;;;;18.88;6.25;;;;;;;16.76;74.17;99289.22;5054698;28;20032;-83
2022/04/12 10:58:31;;;;;;;21.80;6.38;;;;;;;16.85;74.03;99272.34;5054519;28;20021;-83
2022/04/12 11:00:57;;;;;;;14.10;5.53;;;;;;;17.08;72.86;99263.59;5054467;28;20021;-83
2022/04/12 11:03:41;;;;;;;22.85;6.22;;;;;;;16.85;73.51;99265.19;5053219;28;20017;-84
2022/04/12 11:06:14;;;;;;;17.65;6.10;;;;;;;16.65;74.57;99285.97;5054676;28;20312;-83
2022/04/12 11:08:47;;;;;;;16.73;6.38;;;;;;;16.93;73.67;99285.53;5054592;28;20031;-83
2022/04/12 11:11:22;;;;;;;22.73;5.93;;;;;;;16.89;73.95;99286.06;5054235;28;20513;-83
2022/04/12 11:13:49;;;;;;;19.38;5.60;;;;;;;17.19;73.17;99287.06;5054321;28;20028;-83
2022/04/12 11:16:18;;;;;;;26.65;6.88;;;;;;;16.92;73.29;99273.28;5052926;28;20395;-82
2022/04/12 11:18:57;;;;;;;21.00;6.68;;;;;;;17.36;72.42;99262.09;5054088;28;20083;-82
2022/04/12 11:21:24;;;;;;;29.15;5.85;;;;;;;17.48;72.01;99272.31;5054215;28;20033;-83
2022/04/12 11:24:06;;;;;;;25.10;6.88;;;;;;;17.66;72.08;99277.31;5054349;28;20025;-83
2022/04/12 11:26:38;;;;;;;25.38;7.38;;;;;;;17.91;70.98;99277.97;5052762;28;20025;-83